Time;durP1;ratioP1;P1;durP2;ratioP2;P2;SDS_P1;SDS_P2;PMS_P1;PMS_P2;Temp;Humidity;BMP_temperature;BMP_pressure;BME280_temperature;BME280_humidity;BME280_pressure;Samples;Min_cycle;Max_cycle;Signal;HPM_P1;HPM_P2
2023/10/12 07:23:56;;;;;;;16.40;12.73;;;;;;;-145.79;100.00;77235.25;5334052;27;20391;-72
2023/10/12 07:26:30;;;;;;;16.25;13.18;;;;;;;-145.79;100.00;77241.63;5333377;28;20032;-71
2023/10/12 07:29:19;;;;;;;18.20;12.82;;;;;;;-145.79;100.00;77243.75;5343140;28;20030;-69
2023/10/12 07:31:51;;;;;;;16.65;12.55;;;;;;;-145.79;100.00;77241.63;5342499;28;20149;-70
2023/10/12 07:34:23;;;;;;;14.55;12.20;;;;;;;-145.79;100.00;77237.38;5343454;28;20023;-71
2023/10/12 07:36:57;;;;;;;17.10;12.88;;;;;;;-145.79;100.00;77226.78;5333488;28;20043;-70
2023/10/12 07:39:42;;;;;;;12.90;11.60;;;;;;;-145.79;100.00;77214.06;5338663;27;20019;-71
2023/10/12 07:42:14;;;;;;;17.00;12.48;;;;;;;-145.79;100.00;77222.53;5335786;28;20039;-72
2023/10/12 07:44:54;;;;;;;12.35;11.15;;;;;;;-145.79;100.00;77224.66;5340675;28;20087;-71
2023/10/12 07:47:40;;;;;;;12.70;11.13;;;;;;;-145.79;100.00;77207.72;5342305;28;20164;-67
2023/10/12 07:50:14;;;;;;;13.30;11.02;;;;;;;-145.79;100.00;77209.81;5332947;28;20381;-71
2023/10/12 07:52:48;;;;;;;13.95;11.73;;;;;;;-145.79;100.00;77207.72;5338555;28;20031;-71
2023/10/12 07:55:21;;;;;;;16.70;11.48;;;;;;;-145.79;100.00;77207.72;5339333;27;20069;-70
2023/10/12 07:57:53;;;;;;;14.23;11.95;;;;;;;-145.79;100.00;77205.59;5334514;28;20031;-70
2023/10/12 08:13:15;;;;;;;15.85;13.73;;;;;;;-145.79;100.00;77171.69;5339284;27;20501;-70
2023/10/12 08:24:10;;;;;;;18.98;12.52;;;;;;;-145.79;100.00;77180.16;5342289;28;20103;-72
2023/10/12 08:35:10;;;;;;;13.00;10.60;;;;;;;-145.79;100.00;77156.84;5321727;28;19958;-73
2023/10/12 08:38:01;;;;;;;12.95;11.25;;;;;;;-145.79;100.00;77154.72;5321019;28;20031;-73
2023/10/12 08:40:30;;;;;;;14.55;10.85;;;;;;;-145.79;100.00;77156.84;5316162;28;20035;-72
2023/10/12 08:43:06;;;;;;;16.13;11.82;;;;;;;-145.79;100.00;77146.25;5326553;28;20023;-72
2023/10/12 08:45:37;;;;;;;16.85;11.80;;;;;;;-145.79;100.00;77148.34;5326045;28;20020;-71
2023/10/12 08:48:09;;;;;;;11.85;10.55;;;;;;;-145.79;100.00;77156.84;5324432;28;20042;-71
2023/10/12 08:50:47;;;;;;;16.70;10.77;;;;;;;-145.79;100.00;77150.47;5323359;28;20115;-72
2023/10/12 08:53:20;;;;;;;13.32;10.60;;;;;;;-145.79;100.00;77161.06;5310911;28;20024;-72
2023/10/12 08:55:52;;;;;;;11.00;9.90;;;;;;;-145.79;100.00;77161.06;5326270;28;20034;-71
2023/10/12 08:58:38;;;;;;;13.60;10.82;;;;;;;-145.79;100.00;77165.31;5323694;28;20031;-72
2023/10/12 09:01:10;;;;;;;14.50;10.80;;;;;;;-145.79;100.00;77165.31;5326812;28;20482;-72
2023/10/12 09:03:44;;;;;;;11.48;10.30;;;;;;;-145.79;100.00;77152.59;5325995;28;20077;-72
2023/10/12 09:06:53;;;;;;;11.00;9.98;;;;;;;-145.79;100.00;77154.72;5321810;28;20031;-72
2023/10/12 09:12:12;;;;;;;22.85;20.35;;;;;;;-145.79;100.00;77144.13;5315032;28;20031;-72
2023/10/12 09:14:43;;;;;;;21.65;19.55;;;;;;;-145.79;100.00;77148.34;5326607;28;20363;-72
2023/10/12 09:17:27;;;;;;;14.27;10.90;;;;;;;-145.79;100.00;77144.13;5324228;28;20545;-72
2023/10/12 09:20:26;;;;;;;12.38;10.38;;;;;;;-145.79;100.00;77148.34;5324545;28;20023;-72
2023/10/12 09:23:11;;;;;;;13.77;10.90;;;;;;;-145.79;100.00;77144.13;5316503;28;20059;-71
2023/10/12 09:25:59;;;;;;;10.98;9.60;;;;;;;-145.79;100.00;77137.75;5321082;28;20080;-71
2023/10/12 09:28:42;;;;;;;12.30;11.10;;;;;;;-145.79;100.00;77139.88;5324033;28;20047;-71
2023/10/12 09:36:44;;;;;;;13.02;10.05;;;;;;;-145.79;100.00;77127.16;5323618;28;20067;-72
2023/10/12 09:39:24;;;;;;;17.50;15.63;;;;;;;-145.79;100.00;77120.81;5321075;28;20035;-71
2023/10/12 09:42:09;;;;;;;17.75;12.02;;;;;;;-145.79;100.00;77120.81;5321912;28;20041;-71
2023/10/12 09:44:41;;;;;;;14.03;12.63;;;;;;;-145.79;100.00;77125.03;5321624;27;20038;-72
2023/10/12 09:47:16;;;;;;;14.80;11.48;;;;;;;-145.79;100.00;77114.44;5322438;28;20378;-72
2023/10/12 09:49:54;;;;;;;15.43;11.30;;;;;;;-145.79;100.00;77112.31;5323612;28;20551;-71
2023/10/12 09:52:46;;;;;;;15.43;12.35;;;;;;;-145.79;100.00;77110.22;5325359;28;20113;-71
2023/10/12 09:55:25;;;;;;;14.45;11.18;;;;;;;-145.79;100.00;77118.69;5317352;28;20549;-72
2023/10/12 09:57:57;;;;;;;11.90;10.60;;;;;;;-145.79;100.00;77116.56;5322535;28;20077;-72
2023/10/12 10:00:28;;;;;;;13.52;10.25;;;;;;;-145.79;100.00;77099.63;5318782;28;20034;-71
2023/10/12 10:03:03;;;;;;;12.85;10.95;;;;;;;-145.79;100.00;77105.97;5320826;28;20119;-75
2023/10/12 10:05:54;;;;;;;13.03;10.57;;;;;;;-145.79;100.00;77089.00;5324507;28;20043;-72
2023/10/12 10:08:29;;;;;;;12.85;10.45;;;;;;;-145.79;100.00;77097.50;5319510;28;20031;-72
2023/10/12 10:11:11;;;;;;;16.40;12.17;;;;;;;-145.79;100.00;77108.09;5322404;27;20436;-71
2023/10/12 10:13:49;;;;;;;12.70;10.55;;;;;;;-145.79;100.00;77099.63;5307528;28;20780;-71
2023/10/12 10:16:20;;;;;;;12.32;10.68;;;;;;;-145.79;100.00;77097.50;5315682;28;20051;-71
2023/10/12 10:19:14;;;;;;;14.60;11.07;;;;;;;-145.79;100.00;77089.00;5319431;28;20123;-72
2023/10/12 10:22:05;;;;;;;12.75;10.20;;;;;;;-145.79;100.00;77078.41;5323020;28;20081;-73
2023/10/12 10:24:46;;;;;;;14.05;12.13;;;;;;;-145.79;100.00;77080.53;5325212;28;20041;-74
2023/10/12 10:27:18;;;;;;;11.57;10.48;;;;;;;-145.79;100.00;77074.19;5324359;28;20031;-73
2023/10/12 10:29:53;;;;;;;14.05;10.85;;;;;;;-145.79;100.00;77067.81;5324830;28;20079;-73
2023/10/12 10:32:29;;;;;;;13.93;12.50;;;;;;;-145.79;100.00;77063.59;5324280;28;20027;-73
2023/10/12 10:35:07;;;;;;;13.38;11.70;;;;;;;-145.79;100.00;77055.09;5324349;28;20034;-73
2023/10/12 10:37:58;;;;;;;12.45;10.80;;;;;;;-145.79;100.00;77050.88;5324839;28;20031;-74
2023/10/12 10:40:45;;;;;;;12.13;10.88;;;;;;;-145.79;100.00;77042.38;5325052;28;20027;-73
2023/10/12 10:43:17;;;;;;;15.85;11.40;;;;;;;-145.79;100.00;77042.38;5317777;28;20054;-72
2023/10/12 10:45:56;;;;;;;12.60;10.77;;;;;;;-145.79;100.00;77031.78;5324726;28;20142;-73
2023/10/12 10:48:27;;;;;;;13.57;10.80;;;;;;;-145.79;100.00;77033.91;5316286;28;20042;-69
2023/10/12 10:51:02;;;;;;;11.45;10.35;;;;;;;-145.79;100.00;77027.56;5321423;28;20032;-70
2023/10/12 10:53:37;;;;;;;14.30;10.80;;;;;;;-145.79;100.00;77033.91;5323723;28;20039;-69
2023/10/12 10:56:14;;;;;;;10.95;9.80;;;;;;;-145.79;100.00;77021.19;5317844;28;20032;-70
2023/10/12 10:58:46;;;;;;;12.85;10.80;;;;;;;-145.79;100.00;77023.31;5325054;28;20107;-69
2023/10/12 11:01:20;;;;;;;11.65;10.55;;;;;;;-145.79;100.00;77016.94;5324296;28;20102;-69
2023/10/12 11:03:52;;;;;;;14.68;11.27;;;;;;;-145.79;100.00;77025.44;5320118;28;20493;-69
2023/10/12 11:06:27;;;;;;;13.57;12.18;;;;;;;-145.79;100.00;77029.66;5316357;28;20042;-69
2023/10/12 11:09:06;;;;;;;11.50;9.43;;;;;;;-145.79;100.00;77014.84;5319815;28;20116;-69
2023/10/12 11:11:37;;;;;;;14.55;11.50;;;;;;;-145.79;100.00;77016.94;5316007;28;20108;-69
2023/10/12 11:14:10;;;;;;;14.27;10.98;;;;;;;-145.79;100.00;77004.25;5315196;28;20055;-69
2023/10/12 11:16:51;;;;;;;13.75;11.45;;;;;;;-145.79;100.00;77002.13;5323677;28;20023;-69
2023/10/12 11:19:23;;;;;;;12.60;10.98;;;;;;;-145.79;100.00;77000.00;5318095;28;20024;-69
2023/10/12 11:21:57;;;;;;;12.60;10.82;;;;;;;-145.79;100.00;76995.75;5316673;28;20036;-69
2023/10/12 11:24:33;;;;;;;11.10;9.98;;;;;;;-145.79;100.00;77002.13;5315627;28;20146;-68
2023/10/12 11:27:07;;;;;;;14.32;10.63;;;;;;;-145.79;100.00;77000.00;5315398;28;20024;-70
2023/10/12 11:29:52;;;;;;;11.57;9.13;;;;;;;-145.79;100.00;77000.00;5322670;28;20023;-69
2023/10/12 11:32:24;;;;;;;11.40;9.63;;;;;;;-145.79;100.00;77004.25;5313742;28;20028;-69
2023/10/12 11:34:59;;;;;;;12.13;10.00;;;;;;;-145.79;100.00;77006.34;5317230;28;20024;-70
2023/10/12 11:37:39;;;;;;;14.15;9.43;;;;;;;-145.79;100.00;77008.47;5321905;28;20114;-69
2023/10/12 11:40:27;;;;;;;11.20;9.88;;;;;;;-145.79;100.00;77000.00;5311153;28;20024;-69
2023/10/12 11:42:59;;;;;;;11.90;9.95;;;;;;;-145.79;100.00;77004.25;5323715;28;20039;-70
2023/10/12 11:45:33;;;;;;;11.90;9.90;;;;;;;-145.79;100.00;77002.13;5316159;28;20039;-69
2023/10/12 11:48:18;;;;;;;11.75;9.50;;;;;;;-145.79;100.00;76995.75;5317961;28;20062;-69
2023/10/12 11:50:50;;;;;;;11.02;8.68;;;;;;;-145.79;100.00;76991.53;5319143;28;20028;-69
2023/10/12 11:53:24;;;;;;;11.50;10.05;;;;;;;-145.79;99.98;76991.53;5322963;28;20027;-71
2023/10/12 11:56:17;;;;;;;13.27;8.82;;;;;;;-145.79;100.00;76989.41;5322497;28;20031;-69
2023/10/12 11:58:55;;;;;;;15.35;9.68;;;;;;;-145.79;100.00;76985.16;5315475;28;20024;-70
2023/10/12 12:01:27;;;;;;;9.82;7.70;;;;;;;-145.79;99.54;76987.28;5316339;28;20028;-69
2023/10/12 12:04:02;;;;;;;9.93;8.30;;;;;;;-145.79;99.20;77004.25;5324215;28;20030;-71
2023/10/12 12:06:33;;;;;;;11.00;7.85;;;;;;;-145.79;99.52;76991.53;5320340;28;20382;-70
2023/10/12 12:09:08;;;;;;;11.68;8.82;;;;;;;-145.79;99.60;76995.75;5315616;28;20024;-71
2023/10/12 12:11:40;;;;;;;9.02;7.55;;;;;;;-145.79;99.38;76995.75;5325712;28;20077;-71
2023/10/12 12:14:13;;;;;;;8.05;7.07;;;;;;;-145.79;99.27;76985.16;5324125;28;20024;-70
2023/10/12 12:16:44;;;;;;;13.32;10.07;;;;;;;-145.79;98.86;77000.00;5321594;28;20046;-70
2023/10/12 12:19:22;;;;;;;11.07;8.65;;;;;;;-145.79;99.44;76995.75;5314919;28;20356;-70
2023/10/12 12:21:53;;;;;;;12.32;8.32;;;;;;;-145.79;99.75;76989.41;5326984;28;20439;-68
2023/10/12 12:24:29;;;;;;;9.70;7.53;;;;;;;-145.79;99.63;76991.53;5326873;28;20032;-69
2023/10/12 12:27:00;;;;;;;11.32;7.75;;;;;;;-145.79;99.73;76978.81;5326654;28;20458;-71
2023/10/12 12:29:31;;;;;;;13.80;8.52;;;;;;;-145.79;99.79;76983.03;5325994;28;20116;-71
2023/10/12 12:32:03;;;;;;;9.90;7.72;;;;;;;-145.79;99.96;76983.03;5327121;28;20041;-71
2023/10/12 12:34:47;;;;;;;11.18;8.07;;;;;;;-145.79;100.00;76985.16;5319217;28;20253;-71
2023/10/12 12:37:19;;;;;;;9.50;8.02;;;;;;;-145.79;100.00;76978.81;5327478;28;20050;-72
2023/10/12 12:42:44;;;;;;;10.85;8.30;;;;;;;-145.79;100.00;76959.72;5326227;28;20035;-72
2023/10/12 12:45:15;;;;;;;13.07;8.35;;;;;;;-145.79;100.00;76966.09;5320718;28;20493;-71
2023/10/12 12:47:46;;;;;;;10.68;8.52;;;;;;;-145.79;100.00;76966.09;5325111;28;20023;-72
2023/10/12 12:50:18;;;;;;;11.38;7.80;;;;;;;-145.79;100.00;76966.09;5317435;28;20031;-72
2023/10/12 12:52:49;;;;;;;8.13;7.28;;;;;;;-145.79;100.00;76961.84;5327521;28;20462;-71
2023/10/12 12:55:25;;;;;;;11.95;8.40;;;;;;;-145.79;100.00;76974.56;5324771;28;20065;-71
2023/10/12 12:57:56;;;;;;;;;;;;;;;-145.79;100.00;76957.59;5327668;28;20032;-72
2023/10/12 13:00:33;;;;;;;11.63;9.13;;;;;;;-145.79;100.00;76987.28;5327155;28;19916;-71
2023/10/12 13:03:05;;;;;;;13.82;9.43;;;;;;;-145.79;100.00;76974.56;5324250;28;20324;-71
2023/10/12 13:05:36;;;;;;;10.07;8.45;;;;;;;-145.79;100.00;76983.03;5340345;27;20051;-71
2023/10/12 13:08:11;;;;;;;10.15;8.80;;;;;;;-145.79;100.00;76970.31;5324307;28;20059;-72
2023/10/12 13:10:42;;;;;;;10.90;9.77;;;;;;;-145.79;100.00;76980.94;5324638;28;20024;-71
2023/10/12 13:13:14;;;;;;;12.38;9.63;;;;;;;-145.79;100.00;76978.81;5324912;28;20104;-71
2023/10/12 13:15:48;;;;;;;14.23;8.80;;;;;;;-145.79;100.00;76980.94;5324243;28;20039;-71
2023/10/12 13:18:19;;;;;;;11.35;9.60;;;;;;;-145.79;100.00;76961.84;5324400;28;20030;-72
2023/10/12 13:20:50;;;;;;;15.63;9.88;;;;;;;-145.79;100.00;76966.09;5319500;28;20394;-71
2023/10/12 13:23:23;;;;;;;10.50;8.45;;;;;;;-145.79;100.00;76955.50;5317674;28;20436;-72
2023/10/12 13:25:54;;;;;;;12.93;9.35;;;;;;;-145.79;100.00;76953.38;5326518;28;20069;-71
2023/10/12 13:28:25;;;;;;;11.52;8.77;;;;;;;-145.79;100.00;76942.78;5326411;28;20024;-70
2023/10/12 13:30:58;;;;;;;8.70;7.40;;;;;;;-145.79;100.00;76927.94;5307526;28;20023;-71
2023/10/12 13:33:31;;;;;;;10.30;9.15;;;;;;;-145.79;100.00;76927.94;5326568;28;20036;-71
2023/10/12 13:36:02;;;;;;;11.23;9.50;;;;;;;-145.79;100.00;76940.66;5322537;28;20020;-72
2023/10/12 13:38:36;;;;;;;9.70;8.40;;;;;;;-145.79;100.00;76927.94;5324707;28;20032;-70
2023/10/12 13:41:10;;;;;;;12.20;9.25;;;;;;;-145.79;100.00;76930.06;5324645;28;20024;-71
2023/10/12 13:43:45;;;;;;;14.40;9.47;;;;;;;-145.79;100.00;76919.47;5325809;27;20047;-71
2023/10/12 13:46:17;;;;;;;12.45;10.20;;;;;;;-145.79;100.00;76923.69;5324731;28;20617;-71
2023/10/12 13:48:49;;;;;;;10.65;9.32;;;;;;;-145.79;100.00;76923.69;5322109;28;20081;-71
2023/10/12 13:51:31;;;;;;;10.48;9.25;;;;;;;-145.79;100.00;76927.94;5325489;28;20436;-72
2023/10/12 13:54:04;;;;;;;8.80;7.90;;;;;;;-145.79;100.00;76923.69;5320527;28;20103;-75
2023/10/12 13:56:36;;;;;;;10.75;9.65;;;;;;;-145.79;100.00;76925.81;5316064;28;20031;-75
2023/10/12 13:59:09;;;;;;;10.20;8.57;;;;;;;-145.79;100.00;76919.47;5324647;28;20035;-75
2023/10/12 14:01:40;;;;;;;9.43;8.15;;;;;;;-145.79;100.00;76925.81;5325725;28;20030;-76
2023/10/12 14:04:29;;;;;;;11.23;7.93;;;;;;;-145.79;100.00;76921.59;5325374;28;20024;-76
2023/10/12 14:07:01;;;;;;;9.95;8.07;;;;;;;-145.79;100.00;76915.22;5324707;27;20032;-76
2023/10/12 14:09:32;;;;;;;10.13;7.93;;;;;;;-145.79;100.00;76885.56;5325709;28;20015;-75
2023/10/12 14:12:05;;;;;;;10.82;7.90;;;;;;;-145.79;100.00;76902.50;5319360;28;20030;-75
2023/10/12 14:14:37;;;;;;;10.52;7.65;;;;;;;-145.79;100.00;76900.38;5317924;28;20040;-76
2023/10/12 14:17:08;;;;;;;14.00;7.50;;;;;;;-145.79;100.00;76894.03;5325517;28;20350;-75
2023/10/12 14:19:39;;;;;;;10.23;8.15;;;;;;;-145.79;100.00;76904.63;5324509;28;20038;-75
2023/10/12 14:22:12;;;;;;;12.93;8.65;;;;;;;-145.79;100.00;76894.03;5325188;28;20063;-75
2023/10/12 14:24:47;;;;;;;11.48;8.23;;;;;;;-145.79;100.00;76910.97;5316749;28;20358;-74
2023/10/12 14:27:20;;;;;;;10.13;7.05;;;;;;;-145.79;100.00;76910.97;5324234;28;20027;-75
2023/10/12 14:29:52;;;;;;;14.00;10.02;;;;;;;-145.79;100.00;76921.59;5325009;28;20023;-77
2023/10/12 14:32:25;;;;;;;10.35;8.23;;;;;;;-145.79;100.00;76921.59;5324246;28;20080;-76
2023/10/12 14:34:56;;;;;;;13.38;8.20;;;;;;;-145.79;100.00;76944.91;5320747;28;20019;-77
2023/10/12 14:37:28;;;;;;;9.90;7.85;;;;;;;-145.79;100.00;76942.78;5313091;28;20039;-79
2023/10/12 14:40:04;;;;;;;10.27;7.55;;;;;;;-145.79;100.00;76957.59;5316771;28;20031;-80
2023/10/12 14:42:36;;;;;;;12.60;8.25;;;;;;;-145.79;100.00;76959.72;5324757;28;20158;-79
2023/10/12 14:45:13;;;;;;;7.80;6.70;;;;;;;-145.79;100.00;76947.00;5328758;28;20069;-79
2023/10/12 14:47:47;;;;;;;12.20;6.68;;;;;;;-145.79;100.00;76942.78;5324048;28;20450;-79
2023/10/12 14:50:20;;;;;;;12.27;7.57;;;;;;;-145.79;100.00;76936.41;5325691;28;20075;-78
2023/10/12 14:52:53;;;;;;;9.65;8.20;;;;;;;-145.79;100.00;76949.13;5325223;28;20039;-78
2023/10/12 14:55:25;;;;;;;9.68;6.95;;;;;;;-145.79;100.00;76949.13;5324130;28;20478;-78
2023/10/12 14:57:56;;;;;;;9.32;7.07;;;;;;;-145.79;100.00;76951.25;5324957;28;20038;-78
2023/10/12 15:00:30;;;;;;;9.13;6.20;;;;;;;-145.79;100.00;76936.41;5325045;28;20027;-77
2023/10/12 15:03:02;;;;;;;7.85;6.43;;;;;;;-145.79;100.00;76936.41;5320356;28;20028;-78
2023/10/12 15:05:37;;;;;;;8.05;6.30;;;;;;;-145.79;100.00;76938.53;5319564;28;20027;-78
2023/10/12 15:08:08;;;;;;;9.82;6.95;;;;;;;-145.79;100.00;76940.66;5325412;28;20028;-78
2023/10/12 15:10:43;;;;;;;13.52;11.55;;;;;;;-145.79;100.00;76944.91;5326835;28;20023;-79
2023/10/12 15:13:16;;;;;;;9.80;7.93;;;;;;;-145.79;100.00;76934.28;5325151;28;20055;-79
2023/10/12 15:15:47;;;;;;;9.07;7.75;;;;;;;-145.79;100.00;76944.91;5321095;28;20028;-79
2023/10/12 15:18:23;;;;;;;10.45;9.45;;;;;;;-145.79;100.00;76949.13;5322230;28;20022;-79
2023/10/12 15:20:54;;;;;;;9.32;7.13;;;;;;;-145.79;100.00;76947.00;5318800;28;20031;-80
2023/10/12 15:23:27;;;;;;;9.38;6.85;;;;;;;-145.79;100.00;76942.78;5322606;28;20502;-74
2023/10/12 15:26:03;;;;;;;12.70;8.50;;;;;;;-145.79;100.00;76944.91;5320474;28;20463;-69
2023/10/12 15:28:36;;;;;;;12.32;7.80;;;;;;;-145.79;100.00;76953.38;5321441;28;20058;-79
2023/10/12 15:31:08;;;;;;;9.95;7.80;;;;;;;-145.79;100.00;76959.72;5320852;28;20028;-79
2023/10/12 15:33:39;;;;;;;9.27;7.53;;;;;;;-145.79;100.00;76953.38;5324234;28;20028;-79
2023/10/12 15:36:15;;;;;;;12.43;8.05;;;;;;;-145.79;100.00;76970.31;5323829;28;20474;-80
2023/10/12 15:38:46;;;;;;;10.30;7.65;;;;;;;-145.79;100.00;76966.09;5321984;28;20470;-80
2023/10/12 15:41:19;;;;;;;13.10;7.65;;;;;;;-145.79;100.00;76963.97;5320199;28;20026;-74
2023/10/12 15:43:51;;;;;;;10.00;7.97;;;;;;;-145.79;100.00;76966.09;5323054;28;20039;-75
2023/10/12 15:46:24;;;;;;;9.93;8.00;;;;;;;-145.79;100.00;76974.56;5328970;28;20426;-74
2023/10/12 15:48:57;;;;;;;8.90;7.65;;;;;;;-145.79;100.00;76972.44;5328398;28;20471;-75
2023/10/12 15:51:28;;;;;;;8.95;7.72;;;;;;;-145.79;100.00;76974.56;5321804;28;20039;-74
2023/10/12 15:53:59;;;;;;;10.95;7.72;;;;;;;-145.79;100.00;76966.09;5323848;28;20115;-75
2023/10/12 15:56:34;;;;;;;8.82;7.85;;;;;;;-145.79;100.00;76966.09;5323271;28;20110;-75
2023/10/12 15:59:06;;;;;;;8.45;7.65;;;;;;;-145.79;100.00;76961.84;5320431;28;20042;-75
2023/10/12 16:01:39;;;;;;;11.50;8.02;;;;;;;-145.79;100.00;76968.22;5324051;28;20028;-76
2023/10/12 16:04:10;;;;;;;11.55;8.15;;;;;;;-145.79;100.00;76966.09;5327574;28;20024;-75
2023/10/12 16:06:42;;;;;;;8.55;7.60;;;;;;;-145.79;100.00;76959.72;5321681;28;20034;-74
2023/10/12 16:09:20;;;;;;;9.02;8.05;;;;;;;-145.79;100.00;76978.81;5324389;28;20390;-73
2023/10/12 16:11:52;;;;;;;9.98;8.70;;;;;;;-145.79;100.00;76980.94;5318026;28;20027;-74
2023/10/12 16:14:25;;;;;;;9.70;7.72;;;;;;;-145.79;100.00;76987.28;5319098;28;20097;-74
2023/10/12 16:16:57;;;;;;;11.73;8.63;;;;;;;-145.79;100.00;76991.53;5324957;28;20428;-74
2023/10/12 16:19:28;;;;;;;10.23;9.20;;;;;;;-145.79;100.00;76989.41;5319753;28;20028;-74
2023/10/12 16:21:59;;;;;;;9.60;8.55;;;;;;;-145.79;100.00;76991.53;5323036;28;20043;-74
2023/10/12 16:24:31;;;;;;;8.45;7.65;;;;;;;-145.79;100.00;76991.53;5326316;28;20599;-73
2023/10/12 16:27:03;;;;;;;8.88;8.02;;;;;;;-145.79;100.00;76997.88;5321171;28;20107;-73
2023/10/12 16:29:34;;;;;;;9.13;8.20;;;;;;;-145.79;100.00;77000.00;5320642;28;20081;-70
2023/10/12 16:32:09;;;;;;;9.38;8.32;;;;;;;-145.79;100.00;77004.25;5326095;28;20035;-70
2023/10/12 16:34:42;;;;;;;;;;;;;;;-145.79;100.00;76987.28;5325993;28;20107;-70
2023/10/12 16:37:14;;;;;;;10.15;8.20;;;;;;;-145.79;100.00;77002.13;5327094;28;19920;-70
2023/10/12 16:39:45;;;;;;;12.43;9.10;;;;;;;-145.79;100.00;76995.75;5327562;28;20041;-70
2023/10/12 16:42:17;;;;;;;9.98;9.00;;;;;;;-145.79;100.00;77000.00;5324330;28;20084;-70
2023/10/12 16:44:49;;;;;;;10.60;9.50;;;;;;;-145.79;100.00;77000.00;5322494;28;20023;-70
2023/10/12 16:47:20;;;;;;;11.65;9.38;;;;;;;-145.79;100.00;77004.25;5314673;28;20353;-69
2023/10/12 16:49:51;;;;;;;11.35;9.93;;;;;;;-145.79;100.00;77000.00;5326196;28;20024;-70
2023/10/12 16:52:23;;;;;;;10.07;9.15;;;;;;;-145.79;100.00;77006.34;5327138;28;20050;-70
